sensor_id;sensor_type;location;lat;lon;timestamp;P1;durP1;ratioP1;P2;durP2;ratioP2
20802;SDS011;10562;-33.856;151.182;2024-02-15T00:01:51;17.40;;;10.18;;
20802;SDS011;10562;-33.856;151.182;2024-02-15T00:04:22;18.80;;;8.50;;
20802;SDS011;10562;-33.856;151.182;2024-02-15T00:06:53;16.30;;;9.27;;
20802;SDS011;10562;-33.856;151.182;2024-02-15T00:09:23;12.88;;;8.93;;
20802;SDS011;10562;-33.856;151.182;2024-02-15T00:11:54;13.60;;;8.63;;
20802;SDS011;10562;-33.856;151.182;2024-02-15T00:14:30;13.25;;;8.73;;
20802;SDS011;10562;-33.856;151.182;2024-02-15T00:17:01;12.90;;;9.25;;
20802;SDS011;10562;-33.856;151.182;2024-02-15T00:19:32;13.85;;;9.20;;
20802;SDS011;10562;-33.856;151.182;2024-02-15T00:22:03;16.88;;;9.52;;
20802;SDS011;10562;-33.856;151.182;2024-02-15T00:24:36;17.30;;;9.27;;
20802;SDS011;10562;-33.856;151.182;2024-02-15T00:27:08;17.23;;;10.95;;
20802;SDS011;10562;-33.856;151.182;2024-02-15T00:29:40;14.00;;;9.30;;
20802;SDS011;10562;-33.856;151.182;2024-02-15T00:32:11;13.80;;;8.25;;
20802;SDS011;10562;-33.856;151.182;2024-02-15T00:34:42;16.38;;;9.95;;
20802;SDS011;10562;-33.856;151.182;2024-02-15T00:37:13;17.63;;;10.35;;
20802;SDS011;10562;-33.856;151.182;2024-02-15T00:39:44;18.77;;;11.93;;
20802;SDS011;10562;-33.856;151.182;2024-02-15T00:42:15;15.90;;;10.82;;
20802;SDS011;10562;-33.856;151.182;2024-02-15T00:44:48;21.50;;;14.13;;
20802;SDS011;10562;-33.856;151.182;2024-02-15T00:47:19;20.40;;;14.15;;
20802;SDS011;10562;-33.856;151.182;2024-02-15T00:49:49;19.33;;;13.88;;
20802;SDS011;10562;-33.856;151.182;2024-02-15T00:52:22;20.08;;;12.73;;
20802;SDS011;10562;-33.856;151.182;2024-02-15T00:54:55;18.15;;;12.80;;
20802;SDS011;10562;-33.856;151.182;2024-02-15T00:57:26;20.15;;;13.10;;
20802;SDS011;10562;-33.856;151.182;2024-02-15T00:59:59;19.73;;;13.25;;
20802;SDS011;10562;-33.856;151.182;2024-02-15T01:02:29;13.65;;;12.25;;
20802;SDS011;10562;-33.856;151.182;2024-02-15T01:05:01;13.18;;;10.68;;
20802;SDS011;10562;-33.856;151.182;2024-02-15T01:07:32;16.50;;;12.07;;
20802;SDS011;10562;-33.856;151.182;2024-02-15T01:10:03;16.75;;;12.25;;
20802;SDS011;10562;-33.856;151.182;2024-02-15T01:12:35;18.85;;;12.55;;
20802;SDS011;10562;-33.856;151.182;2024-02-15T01:15:08;18.17;;;13.40;;
20802;SDS011;10562;-33.856;151.182;2024-02-15T01:17:39;14.85;;;13.35;;
20802;SDS011;10562;-33.856;151.182;2024-02-15T01:20:10;18.35;;;14.38;;
20802;SDS011;10562;-33.856;151.182;2024-02-15T01:22:42;16.08;;;12.52;;
20802;SDS011;10562;-33.856;151.182;2024-02-15T01:25:13;14.50;;;11.55;;
20802;SDS011;10562;-33.856;151.182;2024-02-15T01:27:44;16.42;;;13.05;;
20802;SDS011;10562;-33.856;151.182;2024-02-15T01:30:18;15.35;;;11.93;;
20802;SDS011;10562;-33.856;151.182;2024-02-15T01:32:51;12.65;;;11.35;;
20802;SDS011;10562;-33.856;151.182;2024-02-15T01:35:25;18.20;;;11.85;;
20802;SDS011;10562;-33.856;151.182;2024-02-15T01:37:56;16.45;;;10.10;;
20802;SDS011;10562;-33.856;151.182;2024-02-15T01:40:27;16.17;;;10.00;;
20802;SDS011;10562;-33.856;151.182;2024-02-15T01:42:58;14.52;;;9.88;;
20802;SDS011;10562;-33.856;151.182;2024-02-15T01:45:30;16.02;;;10.40;;
20802;SDS011;10562;-33.856;151.182;2024-02-15T01:48:02;13.95;;;10.55;;
20802;SDS011;10562;-33.856;151.182;2024-02-15T01:50:33;16.50;;;10.90;;
20802;SDS011;10562;-33.856;151.182;2024-02-15T01:53:04;17.42;;;12.48;;
20802;SDS011;10562;-33.856;151.182;2024-02-15T01:55:36;19.48;;;12.48;;
20802;SDS011;10562;-33.856;151.182;2024-02-15T01:58:08;15.32;;;10.15;;
20802;SDS011;10562;-33.856;151.182;2024-02-15T02:00:43;17.80;;;12.63;;
20802;SDS011;10562;-33.856;151.182;2024-02-15T02:03:14;17.88;;;12.13;;
20802;SDS011;10562;-33.856;151.182;2024-02-15T02:05:45;17.30;;;10.02;;
20802;SDS011;10562;-33.856;151.182;2024-02-15T02:08:16;13.43;;;10.07;;
20802;SDS011;10562;-33.856;151.182;2024-02-15T02:10:47;13.20;;;9.15;;
20802;SDS011;10562;-33.856;151.182;2024-02-15T02:13:18;17.27;;;10.73;;
20802;SDS011;10562;-33.856;151.182;2024-02-15T02:15:51;24.52;;;11.10;;
20802;SDS011;10562;-33.856;151.182;2024-02-15T02:18:23;16.52;;;9.77;;
20802;SDS011;10562;-33.856;151.182;2024-02-15T02:20:53;14.85;;;8.52;;
20802;SDS011;10562;-33.856;151.182;2024-02-15T02:23:25;14.13;;;9.40;;
20802;SDS011;10562;-33.856;151.182;2024-02-15T02:25:59;17.13;;;8.15;;
20802;SDS011;10562;-33.856;151.182;2024-02-15T02:28:31;19.42;;;8.48;;
20802;SDS011;10562;-33.856;151.182;2024-02-15T02:31:02;13.15;;;8.65;;
20802;SDS011;10562;-33.856;151.182;2024-02-15T02:33:33;15.98;;;8.73;;
20802;SDS011;10562;-33.856;151.182;2024-02-15T02:36:07;12.13;;;7.97;;
20802;SDS011;10562;-33.856;151.182;2024-02-15T02:38:38;15.25;;;6.95;;
20802;SDS011;10562;-33.856;151.182;2024-02-15T02:41:13;16.67;;;7.38;;
20802;SDS011;10562;-33.856;151.182;2024-02-15T02:43:45;17.20;;;6.70;;
20802;SDS011;10562;-33.856;151.182;2024-02-15T02:46:16;13.15;;;6.63;;
20802;SDS011;10562;-33.856;151.182;2024-02-15T02:48:46;19.45;;;6.53;;
20802;SDS011;10562;-33.856;151.182;2024-02-15T02:51:17;19.08;;;6.78;;
20802;SDS011;10562;-33.856;151.182;2024-02-15T02:53:48;12.50;;;6.70;;
20802;SDS011;10562;-33.856;151.182;2024-02-15T02:56:21;14.85;;;5.70;;
20802;SDS011;10562;-33.856;151.182;2024-02-15T02:58:52;17.40;;;6.07;;
20802;SDS011;10562;-33.856;151.182;2024-02-15T03:01:23;11.88;;;6.18;;
20802;SDS011;10562;-33.856;151.182;2024-02-15T03:03:54;13.75;;;5.85;;
20802;SDS011;10562;-33.856;151.182;2024-02-15T03:06:25;13.75;;;5.53;;
20802;SDS011;10562;-33.856;151.182;2024-02-15T03:08:56;13.25;;;5.28;;
20802;SDS011;10562;-33.856;151.182;2024-02-15T03:11:29;14.73;;;5.32;;
20802;SDS011;10562;-33.856;151.182;2024-02-15T03:14:00;13.57;;;5.15;;
20802;SDS011;10562;-33.856;151.182;2024-02-15T03:16:31;16.35;;;5.43;;
20802;SDS011;10562;-33.856;151.182;2024-02-15T03:19:02;11.75;;;5.93;;
20802;SDS011;10562;-33.856;151.182;2024-02-15T03:21:35;11.40;;;4.82;;
20802;SDS011;10562;-33.856;151.182;2024-02-15T03:24:06;13.40;;;5.47;;
20802;SDS011;10562;-33.856;151.182;2024-02-15T03:26:38;9.82;;;5.63;;
20802;SDS011;10562;-33.856;151.182;2024-02-15T03:29:09;13.65;;;6.25;;
20802;SDS011;10562;-33.856;151.182;2024-02-15T03:31:40;15.73;;;6.47;;
20802;SDS011;10562;-33.856;151.182;2024-02-15T03:34:11;11.23;;;6.50;;
20802;SDS011;10562;-33.856;151.182;2024-02-15T03:36:42;13.65;;;6.57;;
20802;SDS011;10562;-33.856;151.182;2024-02-15T03:39:13;10.90;;;5.47;;
20802;SDS011;10562;-33.856;151.182;2024-02-15T03:41:46;17.88;;;6.20;;
20802;SDS011;10562;-33.856;151.182;2024-02-15T03:44:17;12.20;;;5.28;;
20802;SDS011;10562;-33.856;151.182;2024-02-15T03:46:48;15.80;;;5.95;;
20802;SDS011;10562;-33.856;151.182;2024-02-15T03:49:19;16.35;;;6.20;;
20802;SDS011;10562;-33.856;151.182;2024-02-15T03:51:50;16.42;;;6.05;;
20802;SDS011;10562;-33.856;151.182;2024-02-15T03:54:21;18.05;;;7.00;;
20802;SDS011;10562;-33.856;151.182;2024-02-15T03:56:53;14.80;;;7.03;;
20802;SDS011;10562;-33.856;151.182;2024-02-15T03:59:25;16.30;;;6.53;;
20802;SDS011;10562;-33.856;151.182;2024-02-15T04:01:58;12.00;;;6.15;;
20802;SDS011;10562;-33.856;151.182;2024-02-15T04:04:30;13.27;;;5.47;;
20802;SDS011;10562;-33.856;151.182;2024-02-15T04:07:00;15.88;;;6.88;;
20802;SDS011;10562;-33.856;151.182;2024-02-15T04:09:34;12.38;;;6.13;;
20802;SDS011;10562;-33.856;151.182;2024-02-15T04:12:07;17.17;;;6.50;;
20802;SDS011;10562;-33.856;151.182;2024-02-15T04:14:38;13.82;;;5.30;;
20802;SDS011;10562;-33.856;151.182;2024-02-15T04:17:12;12.10;;;6.07;;
20802;SDS011;10562;-33.856;151.182;2024-02-15T04:20:01;12.02;;;5.80;;
20802;SDS011;10562;-33.856;151.182;2024-02-15T04:22:32;12.57;;;5.75;;
20802;SDS011;10562;-33.856;151.182;2024-02-15T04:25:05;11.88;;;5.65;;
20802;SDS011;10562;-33.856;151.182;2024-02-15T04:27:38;17.55;;;6.38;;
20802;SDS011;10562;-33.856;151.182;2024-02-15T04:30:09;11.90;;;5.50;;
20802;SDS011;10562;-33.856;151.182;2024-02-15T04:32:41;10.48;;;5.45;;
20802;SDS011;10562;-33.856;151.182;2024-02-15T04:35:13;12.50;;;5.10;;
20802;SDS011;10562;-33.856;151.182;2024-02-15T04:37:43;14.65;;;4.97;;
20802;SDS011;10562;-33.856;151.182;2024-02-15T04:40:15;13.82;;;5.88;;
20802;SDS011;10562;-33.856;151.182;2024-02-15T04:42:48;13.43;;;5.60;;
20802;SDS011;10562;-33.856;151.182;2024-02-15T04:45:18;12.15;;;6.00;;
20802;SDS011;10562;-33.856;151.182;2024-02-15T04:47:49;14.05;;;5.63;;
20802;SDS011;10562;-33.856;151.182;2024-02-15T04:50:20;16.58;;;5.20;;
20802;SDS011;10562;-33.856;151.182;2024-02-15T04:52:52;17.73;;;6.22;;
20802;SDS011;10562;-33.856;151.182;2024-02-15T04:55:22;12.13;;;5.45;;
20802;SDS011;10562;-33.856;151.182;2024-02-15T04:57:59;13.23;;;5.03;;
20802;SDS011;10562;-33.856;151.182;2024-02-15T05:00:30;12.98;;;5.85;;
20802;SDS011;10562;-33.856;151.182;2024-02-15T05:03:02;9.93;;;5.05;;
20802;SDS011;10562;-33.856;151.182;2024-02-15T05:05:34;11.15;;;5.53;;
20802;SDS011;10562;-33.856;151.182;2024-02-15T05:08:05;14.48;;;5.30;;
20802;SDS011;10562;-33.856;151.182;2024-02-15T05:10:36;12.55;;;5.45;;
20802;SDS011;10562;-33.856;151.182;2024-02-15T05:13:09;14.10;;;5.50;;
20802;SDS011;10562;-33.856;151.182;2024-02-15T05:15:40;13.02;;;5.13;;
20802;SDS011;10562;-33.856;151.182;2024-02-15T05:18:11;9.15;;;4.75;;
20802;SDS011;10562;-33.856;151.182;2024-02-15T05:20:43;16.90;;;5.13;;
20802;SDS011;10562;-33.856;151.182;2024-02-15T05:23:13;15.30;;;4.78;;
20802;SDS011;10562;-33.856;151.182;2024-02-15T05:25:44;13.55;;;5.45;;
20802;SDS011;10562;-33.856;151.182;2024-02-15T05:28:17;12.77;;;5.00;;
20802;SDS011;10562;-33.856;151.182;2024-02-15T05:33:43;11.35;;;4.88;;
20802;SDS011;10562;-33.856;151.182;2024-02-15T05:36:14;15.13;;;5.03;;
20802;SDS011;10562;-33.856;151.182;2024-02-15T05:38:46;12.68;;;4.60;;
20802;SDS011;10562;-33.856;151.182;2024-02-15T05:41:18;12.77;;;4.30;;
20802;SDS011;10562;-33.856;151.182;2024-02-15T05:43:50;12.65;;;4.80;;
20802;SDS011;10562;-33.856;151.182;2024-02-15T05:46:21;17.00;;;5.15;;
20802;SDS011;10562;-33.856;151.182;2024-02-15T05:48:54;13.75;;;4.70;;
20802;SDS011;10562;-33.856;151.182;2024-02-15T05:51:25;14.13;;;5.25;;
20802;SDS011;10562;-33.856;151.182;2024-02-15T05:53:57;13.07;;;5.15;;
20802;SDS011;10562;-33.856;151.182;2024-02-15T05:56:29;14.57;;;4.63;;
20802;SDS011;10562;-33.856;151.182;2024-02-15T05:59:02;16.98;;;4.63;;
20802;SDS011;10562;-33.856;151.182;2024-02-15T06:01:36;12.90;;;4.78;;
20802;SDS011;10562;-33.856;151.182;2024-02-15T06:04:08;12.27;;;5.03;;
20802;SDS011;10562;-33.856;151.182;2024-02-15T06:06:39;12.48;;;5.50;;
20802;SDS011;10562;-33.856;151.182;2024-02-15T06:09:10;10.05;;;4.93;;
20802;SDS011;10562;-33.856;151.182;2024-02-15T06:11:40;9.93;;;5.25;;
20802;SDS011;10562;-33.856;151.182;2024-02-15T06:14:14;12.23;;;5.05;;
20802;SDS011;10562;-33.856;151.182;2024-02-15T06:16:45;12.40;;;4.93;;
20802;SDS011;10562;-33.856;151.182;2024-02-15T06:19:17;13.43;;;5.93;;
20802;SDS011;10562;-33.856;151.182;2024-02-15T06:21:48;15.95;;;5.75;;
20802;SDS011;10562;-33.856;151.182;2024-02-15T06:24:19;15.48;;;5.90;;
20802;SDS011;10562;-33.856;151.182;2024-02-15T06:26:50;11.25;;;5.63;;
20802;SDS011;10562;-33.856;151.182;2024-02-15T06:29:27;15.32;;;5.43;;
20802;SDS011;10562;-33.856;151.182;2024-02-15T06:32:14;12.38;;;5.28;;
20802;SDS011;10562;-33.856;151.182;2024-02-15T06:35:00;16.27;;;5.90;;
20802;SDS011;10562;-33.856;151.182;2024-02-15T06:37:51;11.40;;;5.50;;
20802;SDS011;10562;-33.856;151.182;2024-02-15T06:40:37;16.30;;;5.93;;
20802;SDS011;10562;-33.856;151.182;2024-02-15T06:43:08;18.88;;;6.60;;
20802;SDS011;10562;-33.856;151.182;2024-02-15T06:45:42;11.80;;;5.38;;
20802;SDS011;10562;-33.856;151.182;2024-02-15T06:48:13;13.30;;;5.32;;
20802;SDS011;10562;-33.856;151.182;2024-02-15T06:50:44;11.68;;;5.35;;
20802;SDS011;10562;-33.856;151.182;2024-02-15T06:53:18;12.07;;;5.35;;
20802;SDS011;10562;-33.856;151.182;2024-02-15T06:55:49;15.27;;;5.95;;
20802;SDS011;10562;-33.856;151.182;2024-02-15T06:58:22;14.98;;;6.22;;
20802;SDS011;10562;-33.856;151.182;2024-02-15T07:04:04;12.20;;;6.53;;
20802;SDS011;10562;-33.856;151.182;2024-02-15T07:06:43;14.18;;;6.75;;
20802;SDS011;10562;-33.856;151.182;2024-02-15T07:09:29;19.25;;;7.32;;
20802;SDS011;10562;-33.856;151.182;2024-02-15T07:12:04;18.92;;;8.27;;
20802;SDS011;10562;-33.856;151.182;2024-02-15T07:14:44;24.88;;;10.05;;
20802;SDS011;10562;-33.856;151.182;2024-02-15T07:17:34;18.95;;;8.60;;
20802;SDS011;10562;-33.856;151.182;2024-02-15T07:20:09;19.88;;;7.93;;
20802;SDS011;10562;-33.856;151.182;2024-02-15T07:22:47;13.80;;;8.18;;
20802;SDS011;10562;-33.856;151.182;2024-02-15T07:25:29;16.02;;;6.32;;
20802;SDS011;10562;-33.856;151.182;2024-02-15T07:28:06;14.82;;;6.22;;
20802;SDS011;10562;-33.856;151.182;2024-02-15T07:30:56;12.18;;;6.18;;
20802;SDS011;10562;-33.856;151.182;2024-02-15T07:33:45;17.92;;;6.72;;
20802;SDS011;10562;-33.856;151.182;2024-02-15T07:36:19;15.35;;;6.32;;
20802;SDS011;10562;-33.856;151.182;2024-02-15T07:39:05;14.05;;;6.18;;
20802;SDS011;10562;-33.856;151.182;2024-02-15T07:41:51;19.30;;;6.57;;
20802;SDS011;10562;-33.856;151.182;2024-02-15T07:44:24;15.13;;;6.20;;
20802;SDS011;10562;-33.856;151.182;2024-02-15T07:46:56;15.73;;;5.95;;
20802;SDS011;10562;-33.856;151.182;2024-02-15T07:49:31;11.50;;;6.55;;
20802;SDS011;10562;-33.856;151.182;2024-02-15T07:52:06;14.30;;;6.50;;
20802;SDS011;10562;-33.856;151.182;2024-02-15T07:54:37;12.98;;;6.28;;
20802;SDS011;10562;-33.856;151.182;2024-02-15T07:57:15;16.48;;;6.90;;
20802;SDS011;10562;-33.856;151.182;2024-02-15T07:59:51;13.40;;;6.85;;
20802;SDS011;10562;-33.856;151.182;2024-02-15T08:02:46;15.20;;;7.22;;
20802;SDS011;10562;-33.856;151.182;2024-02-15T08:05:19;17.10;;;7.97;;
20802;SDS011;10562;-33.856;151.182;2024-02-15T08:07:50;14.32;;;6.97;;
20802;SDS011;10562;-33.856;151.182;2024-02-15T08:10:23;12.82;;;7.57;;
20802;SDS011;10562;-33.856;151.182;2024-02-15T08:12:55;15.43;;;8.15;;
20802;SDS011;10562;-33.856;151.182;2024-02-15T08:15:26;17.02;;;7.40;;
20802;SDS011;10562;-33.856;151.182;2024-02-15T08:17:56;12.98;;;6.70;;
20802;SDS011;10562;-33.856;151.182;2024-02-15T08:20:33;13.00;;;7.72;;
20802;SDS011;10562;-33.856;151.182;2024-02-15T08:23:04;15.50;;;7.43;;
20802;SDS011;10562;-33.856;151.182;2024-02-15T08:25:38;20.35;;;7.53;;
20802;SDS011;10562;-33.856;151.182;2024-02-15T08:28:09;10.98;;;7.22;;
20802;SDS011;10562;-33.856;151.182;2024-02-15T08:30:41;17.40;;;7.38;;
20802;SDS011;10562;-33.856;151.182;2024-02-15T08:33:14;14.82;;;7.78;;
20802;SDS011;10562;-33.856;151.182;2024-02-15T08:35:47;16.02;;;8.10;;
20802;SDS011;10562;-33.856;151.182;2024-02-15T08:38:21;14.55;;;8.23;;
20802;SDS011;10562;-33.856;151.182;2024-02-15T08:40:52;17.98;;;9.13;;
20802;SDS011;10562;-33.856;151.182;2024-02-15T08:43:23;16.17;;;8.85;;
20802;SDS011;10562;-33.856;151.182;2024-02-15T08:45:56;15.20;;;9.18;;
20802;SDS011;10562;-33.856;151.182;2024-02-15T08:48:27;17.65;;;7.70;;
20802;SDS011;10562;-33.856;151.182;2024-02-15T08:51:00;17.38;;;8.40;;
20802;SDS011;10562;-33.856;151.182;2024-02-15T08:53:32;22.27;;;8.43;;
20802;SDS011;10562;-33.856;151.182;2024-02-15T08:56:03;18.42;;;8.45;;
20802;SDS011;10562;-33.856;151.182;2024-02-15T08:58:35;18.52;;;8.45;;
20802;SDS011;10562;-33.856;151.182;2024-02-15T09:01:06;18.00;;;8.77;;
20802;SDS011;10562;-33.856;151.182;2024-02-15T09:03:39;23.67;;;10.30;;
20802;SDS011;10562;-33.856;151.182;2024-02-15T09:06:13;20.50;;;11.57;;
20802;SDS011;10562;-33.856;151.182;2024-02-15T09:08:45;24.58;;;12.27;;
20802;SDS011;10562;-33.856;151.182;2024-02-15T09:11:16;17.55;;;9.82;;
20802;SDS011;10562;-33.856;151.182;2024-02-15T09:13:47;21.83;;;11.93;;
20802;SDS011;10562;-33.856;151.182;2024-02-15T09:16:18;17.23;;;10.63;;
20802;SDS011;10562;-33.856;151.182;2024-02-15T09:18:49;19.15;;;9.57;;
20802;SDS011;10562;-33.856;151.182;2024-02-15T09:21:22;17.48;;;10.13;;
20802;SDS011;10562;-33.856;151.182;2024-02-15T09:23:54;21.00;;;10.05;;
20802;SDS011;10562;-33.856;151.182;2024-02-15T09:26:25;18.05;;;8.82;;
20802;SDS011;10562;-33.856;151.182;2024-02-15T09:28:56;18.95;;;9.55;;
20802;SDS011;10562;-33.856;151.182;2024-02-15T09:31:27;17.27;;;9.68;;
20802;SDS011;10562;-33.856;151.182;2024-02-15T09:33:57;12.88;;;8.27;;
20802;SDS011;10562;-33.856;151.182;2024-02-15T09:36:33;14.63;;;8.45;;
20802;SDS011;10562;-33.856;151.182;2024-02-15T09:39:04;15.30;;;8.98;;
20802;SDS011;10562;-33.856;151.182;2024-02-15T09:41:35;22.20;;;9.38;;
20802;SDS011;10562;-33.856;151.182;2024-02-15T09:44:06;14.77;;;9.32;;
20802;SDS011;10562;-33.856;151.182;2024-02-15T09:46:42;14.10;;;7.90;;
20802;SDS011;10562;-33.856;151.182;2024-02-15T09:49:14;14.73;;;9.52;;
20802;SDS011;10562;-33.856;151.182;2024-02-15T09:51:46;14.68;;;8.90;;
20802;SDS011;10562;-33.856;151.182;2024-02-15T09:54:18;15.73;;;8.57;;
20802;SDS011;10562;-33.856;151.182;2024-02-15T09:56:49;21.33;;;10.15;;
20802;SDS011;10562;-33.856;151.182;2024-02-15T09:59:21;13.38;;;9.02;;
20802;SDS011;10562;-33.856;151.182;2024-02-15T10:01:52;18.50;;;9.77;;
20802;SDS011;10562;-33.856;151.182;2024-02-15T10:04:28;19.15;;;9.85;;
20802;SDS011;10562;-33.856;151.182;2024-02-15T10:07:02;12.30;;;9.30;;
20802;SDS011;10562;-33.856;151.182;2024-02-15T10:09:35;16.23;;;9.35;;
20802;SDS011;10562;-33.856;151.182;2024-02-15T10:12:08;17.63;;;10.70;;
20802;SDS011;10562;-33.856;151.182;2024-02-15T10:14:44;16.65;;;10.90;;
20802;SDS011;10562;-33.856;151.182;2024-02-15T10:17:18;17.63;;;11.50;;
20802;SDS011;10562;-33.856;151.182;2024-02-15T10:20:03;16.85;;;11.57;;
20802;SDS011;10562;-33.856;151.182;2024-02-15T10:22:38;17.38;;;11.20;;
20802;SDS011;10562;-33.856;151.182;2024-02-15T10:25:11;22.05;;;11.68;;
20802;SDS011;10562;-33.856;151.182;2024-02-15T10:27:42;18.23;;;11.95;;
20802;SDS011;10562;-33.856;151.182;2024-02-15T10:30:17;21.10;;;12.45;;
20802;SDS011;10562;-33.856;151.182;2024-02-15T10:32:49;16.58;;;10.93;;
20802;SDS011;10562;-33.856;151.182;2024-02-15T10:35:22;16.30;;;13.13;;
20802;SDS011;10562;-33.856;151.182;2024-02-15T10:38:06;20.92;;;13.23;;
20802;SDS011;10562;-33.856;151.182;2024-02-15T10:40:38;19.70;;;13.43;;
20802;SDS011;10562;-33.856;151.182;2024-02-15T10:43:09;18.05;;;13.38;;
20802;SDS011;10562;-33.856;151.182;2024-02-15T10:45:40;21.50;;;12.77;;
20802;SDS011;10562;-33.856;151.182;2024-02-15T10:48:11;16.38;;;12.30;;
20802;SDS011;10562;-33.856;151.182;2024-02-15T10:50:42;17.15;;;12.30;;
20802;SDS011;10562;-33.856;151.182;2024-02-15T10:53:21;17.60;;;15.23;;
20802;SDS011;10562;-33.856;151.182;2024-02-15T10:55:57;22.98;;;14.35;;
20802;SDS011;10562;-33.856;151.182;2024-02-15T10:58:38;20.92;;;13.98;;
20802;SDS011;10562;-33.856;151.182;2024-02-15T11:01:16;19.13;;;14.90;;
20802;SDS011;10562;-33.856;151.182;2024-02-15T11:03:50;16.92;;;14.50;;
20802;SDS011;10562;-33.856;151.182;2024-02-15T11:06:26;21.80;;;15.52;;
20802;SDS011;10562;-33.856;151.182;2024-02-15T11:09:01;20.02;;;14.18;;
20802;SDS011;10562;-33.856;151.182;2024-02-15T11:11:34;18.55;;;15.27;;
20802;SDS011;10562;-33.856;151.182;2024-02-15T11:14:23;18.30;;;14.63;;
20802;SDS011;10562;-33.856;151.182;2024-02-15T11:16:58;18.23;;;14.95;;
20802;SDS011;10562;-33.856;151.182;2024-02-15T11:19:42;24.70;;;19.20;;
20802;SDS011;10562;-33.856;151.182;2024-02-15T11:22:14;20.13;;;16.63;;
20802;SDS011;10562;-33.856;151.182;2024-02-15T11:24:50;21.25;;;17.98;;
20802;SDS011;10562;-33.856;151.182;2024-02-15T11:27:26;21.73;;;18.90;;
20802;SDS011;10562;-33.856;151.182;2024-02-15T11:29:58;52.33;;;47.60;;
20802;SDS011;10562;-33.856;151.182;2024-02-15T11:32:38;48.13;;;43.63;;
20802;SDS011;10562;-33.856;151.182;2024-02-15T11:35:10;86.50;;;79.60;;
20802;SDS011;10562;-33.856;151.182;2024-02-15T11:37:55;74.43;;;68.80;;
20802;SDS011;10562;-33.856;151.182;2024-02-15T11:43:54;81.18;;;74.55;;
20802;SDS011;10562;-33.856;151.182;2024-02-15T11:46:27;97.68;;;90.43;;
20802;SDS011;10562;-33.856;151.182;2024-02-15T11:49:01;82.63;;;76.55;;
20802;SDS011;10562;-33.856;151.182;2024-02-15T11:51:35;84.05;;;77.13;;
20802;SDS011;10562;-33.856;151.182;2024-02-15T11:54:09;103.15;;;95.43;;
20802;SDS011;10562;-33.856;151.182;2024-02-15T11:56:53;105.53;;;97.45;;
20802;SDS011;10562;-33.856;151.182;2024-02-15T11:59:40;25.05;;;16.08;;
20802;SDS011;10562;-33.856;151.182;2024-02-15T12:02:41;32.33;;;29.15;;
20802;SDS011;10562;-33.856;151.182;2024-02-15T12:05:28;29.42;;;25.48;;
20802;SDS011;10562;-33.856;151.182;2024-02-15T12:08:23;21.55;;;16.27;;
20802;SDS011;10562;-33.856;151.182;2024-02-15T12:11:13;22.98;;;20.67;;
20802;SDS011;10562;-33.856;151.182;2024-02-15T12:14:01;20.45;;;17.38;;
20802;SDS011;10562;-33.856;151.182;2024-02-15T12:16:58;22.05;;;14.98;;
20802;SDS011;10562;-33.856;151.182;2024-02-15T12:19:48;17.80;;;15.63;;
20802;SDS011;10562;-33.856;151.182;2024-02-15T12:22:22;18.98;;;13.55;;
20802;SDS011;10562;-33.856;151.182;2024-02-15T12:24:56;22.70;;;18.25;;
20802;SDS011;10562;-33.856;151.182;2024-02-15T12:27:27;17.05;;;12.60;;
20802;SDS011;10562;-33.856;151.182;2024-02-15T12:30:00;18.60;;;13.13;;
20802;SDS011;10562;-33.856;151.182;2024-02-15T12:32:33;18.25;;;14.30;;
20802;SDS011;10562;-33.856;151.182;2024-02-15T12:35:10;23.67;;;18.02;;
20802;SDS011;10562;-33.856;151.182;2024-02-15T12:37:42;22.88;;;14.88;;
20802;SDS011;10562;-33.856;151.182;2024-02-15T12:40:14;28.90;;;25.92;;
20802;SDS011;10562;-33.856;151.182;2024-02-15T12:42:48;21.50;;;17.45;;
20802;SDS011;10562;-33.856;151.182;2024-02-15T12:45:21;19.60;;;14.85;;
20802;SDS011;10562;-33.856;151.182;2024-02-15T12:47:55;21.65;;;16.50;;
20802;SDS011;10562;-33.856;151.182;2024-02-15T12:50:27;18.42;;;15.15;;
20802;SDS011;10562;-33.856;151.182;2024-02-15T12:52:59;24.27;;;17.35;;
20802;SDS011;10562;-33.856;151.182;2024-02-15T12:55:32;24.00;;;21.55;;
20802;SDS011;10562;-33.856;151.182;2024-02-15T12:58:03;24.45;;;21.92;;
20802;SDS011;10562;-33.856;151.182;2024-02-15T13:00:39;24.52;;;20.40;;
20802;SDS011;10562;-33.856;151.182;2024-02-15T13:03:09;24.13;;;19.85;;
20802;SDS011;10562;-33.856;151.182;2024-02-15T13:05:42;26.27;;;21.25;;
20802;SDS011;10562;-33.856;151.182;2024-02-15T13:08:14;24.45;;;21.63;;
20802;SDS011;10562;-33.856;151.182;2024-02-15T13:10:46;33.72;;;30.40;;
20802;SDS011;10562;-33.856;151.182;2024-02-15T13:13:17;25.15;;;22.60;;
20802;SDS011;10562;-33.856;151.182;2024-02-15T13:15:51;33.58;;;27.25;;
20802;SDS011;10562;-33.856;151.182;2024-02-15T13:18:21;31.27;;;26.73;;
20802;SDS011;10562;-33.856;151.182;2024-02-15T13:20:54;31.73;;;28.67;;
20802;SDS011;10562;-33.856;151.182;2024-02-15T13:23:25;27.33;;;24.63;;
20802;SDS011;10562;-33.856;151.182;2024-02-15T13:25:57;29.73;;;26.58;;
20802;SDS011;10562;-33.856;151.182;2024-02-15T13:28:30;35.15;;;31.42;;
20802;SDS011;10562;-33.856;151.182;2024-02-15T13:31:03;38.08;;;33.88;;
20802;SDS011;10562;-33.856;151.182;2024-02-15T13:33:33;40.47;;;36.67;;
20802;SDS011;10562;-33.856;151.182;2024-02-15T13:36:04;37.42;;;33.72;;
20802;SDS011;10562;-33.856;151.182;2024-02-15T13:38:37;39.25;;;35.15;;
20802;SDS011;10562;-33.856;151.182;2024-02-15T13:41:08;40.22;;;36.42;;
20802;SDS011;10562;-33.856;151.182;2024-02-15T13:43:39;37.10;;;33.60;;
20802;SDS011;10562;-33.856;151.182;2024-02-15T13:46:12;41.67;;;38.00;;
20802;SDS011;10562;-33.856;151.182;2024-02-15T13:48:46;44.60;;;40.13;;
20802;SDS011;10562;-33.856;151.182;2024-02-15T13:51:16;42.00;;;37.88;;
20802;SDS011;10562;-33.856;151.182;2024-02-15T13:53:47;47.05;;;42.28;;
20802;SDS011;10562;-33.856;151.182;2024-02-15T13:56:18;84.68;;;77.32;;
20802;SDS011;10562;-33.856;151.182;2024-02-15T13:58:49;68.68;;;63.05;;
20802;SDS011;10562;-33.856;151.182;2024-02-15T14:01:22;63.65;;;57.78;;
20802;SDS011;10562;-33.856;151.182;2024-02-15T14:03:52;65.47;;;59.95;;
20802;SDS011;10562;-33.856;151.182;2024-02-15T14:06:23;58.83;;;53.13;;
20802;SDS011;10562;-33.856;151.182;2024-02-15T14:08:55;64.30;;;58.85;;
20802;SDS011;10562;-33.856;151.182;2024-02-15T14:11:26;69.65;;;63.67;;
20802;SDS011;10562;-33.856;151.182;2024-02-15T14:13:57;69.30;;;63.28;;
20802;SDS011;10562;-33.856;151.182;2024-02-15T14:16:30;71.80;;;65.68;;
20802;SDS011;10562;-33.856;151.182;2024-02-15T14:19:01;165.45;;;153.15;;
20802;SDS011;10562;-33.856;151.182;2024-02-15T14:21:32;152.63;;;141.27;;
20802;SDS011;10562;-33.856;151.182;2024-02-15T14:24:05;146.73;;;136.45;;
20802;SDS011;10562;-33.856;151.182;2024-02-15T14:26:36;138.18;;;127.88;;
20802;SDS011;10562;-33.856;151.182;2024-02-15T14:29:07;122.30;;;112.68;;
20802;SDS011;10562;-33.856;151.182;2024-02-15T14:31:42;134.10;;;124.43;;
20802;SDS011;10562;-33.856;151.182;2024-02-15T14:34:29;126.95;;;117.13;;
20802;SDS011;10562;-33.856;151.182;2024-02-15T14:37:02;115.10;;;106.05;;